createdAt,value
2023-05-22T07:21:55.481Z,100.00
2023-05-22T07:24:21.861Z,100.00
2023-05-22T07:26:49.365Z,100.00
2023-05-22T07:29:16.132Z,100.00
2023-05-22T07:31:42.656Z,100.00
2023-05-22T07:34:09.410Z,100.00
2023-05-22T07:36:36.120Z,100.00
2023-05-22T07:39:02.704Z,100.00
2023-05-22T07:41:29.157Z,100.00
2023-05-22T07:43:55.675Z,100.00
2023-05-22T07:46:22.291Z,100.00
2023-05-22T07:48:48.852Z,100.00
2023-05-22T07:51:15.278Z,100.00
2023-05-22T07:53:41.780Z,100.00
2023-05-22T07:56:08.239Z,100.00
2023-05-22T07:58:34.758Z,100.00
2023-05-22T08:01:01.826Z,100.00
2023-05-22T08:03:28.574Z,100.00
2023-05-22T08:05:55.084Z,100.00
2023-05-22T08:08:21.665Z,100.00
2023-05-22T08:11:03.004Z,100.00
2023-05-22T08:13:30.583Z,100.00
2023-05-22T08:16:00.661Z,100.00
2023-05-22T08:18:28.846Z,100.00
2023-05-22T08:20:55.874Z,100.00
2023-05-22T08:23:22.365Z,100.00
2023-05-22T08:25:50.109Z,100.00
2023-05-22T08:28:16.532Z,100.00
2023-05-22T08:30:43.076Z,100.00
2023-05-22T08:33:09.543Z,100.00
2023-05-22T08:35:36.280Z,100.00
2023-05-22T08:38:02.735Z,100.00
2023-05-22T08:40:37.504Z,100.00
2023-05-22T08:43:05.789Z,100.00
2023-05-22T08:45:35.090Z,100.00
2023-05-22T08:48:05.853Z,100.00
2023-05-22T08:50:33.355Z,100.00
2023-05-22T08:53:03.947Z,100.00
2023-05-22T08:55:30.568Z,100.00
2023-05-22T08:57:57.565Z,100.00
2023-05-22T09:00:24.074Z,100.00
2023-05-22T09:02:52.456Z,100.00
2023-05-22T09:05:19.457Z,100.00
2023-05-22T09:07:45.931Z,100.00
2023-05-22T09:10:12.364Z,100.00
2023-05-22T09:12:38.727Z,100.00
2023-05-22T09:15:13.504Z,100.00
2023-05-22T09:17:41.042Z,100.00
2023-05-22T09:20:10.200Z,100.00
2023-05-22T09:22:40.813Z,100.00
2023-05-22T09:25:07.634Z,100.00
2023-05-22T09:27:34.326Z,100.00
2023-05-22T09:30:01.117Z,100.00
2023-05-22T09:32:33.343Z,100.00
2023-05-22T09:35:04.747Z,100.00
2023-05-22T09:37:35.504Z,100.00
2023-05-22T09:40:06.978Z,100.00
2023-05-22T09:42:37.261Z,100.00
2023-05-22T09:45:08.446Z,100.00
2023-05-22T09:47:35.764Z,100.00
2023-05-22T09:50:06.372Z,100.00
2023-05-22T09:52:37.902Z,100.00
2023-05-22T09:55:08.698Z,100.00
2023-05-22T09:57:43.356Z,100.00
2023-05-22T10:00:18.408Z,100.00
2023-05-22T10:02:59.204Z,100.00
2023-05-22T10:05:30.767Z,100.00
2023-05-22T10:08:05.086Z,100.00
2023-05-22T10:10:33.021Z,100.00
2023-05-22T10:13:06.438Z,100.00
2023-05-22T10:15:33.167Z,100.00
2023-05-22T10:18:00.757Z,100.00
2023-05-22T10:20:28.860Z,100.00
2023-05-22T10:22:56.917Z,100.00
2023-05-22T10:25:23.589Z,100.00
2023-05-22T10:27:53.481Z,100.00
2023-05-22T10:30:53.005Z,100.00
2023-05-22T10:33:25.984Z,100.00
2023-05-22T10:35:52.687Z,100.00
2023-05-22T10:38:27.687Z,100.00
2023-05-22T10:40:55.580Z,100.00
2023-05-22T10:43:22.873Z,100.00
2023-05-22T10:45:49.351Z,100.00
2023-05-22T10:48:22.260Z,100.00
2023-05-22T10:50:54.693Z,100.00
2023-05-22T10:53:25.581Z,100.00
2023-05-22T10:55:54.792Z,100.00
2023-05-22T10:58:37.386Z,100.00
2023-05-22T11:01:14.488Z,100.00
2023-05-22T11:04:00.989Z,100.00
2023-05-22T11:06:31.086Z,100.00
2023-05-22T11:08:57.912Z,100.00
2023-05-22T11:11:27.785Z,95.99
2023-05-22T11:14:03.327Z,91.54
2023-05-22T11:16:33.598Z,91.29
2023-05-22T11:19:22.866Z,93.55
2023-05-22T11:21:50.608Z,100.00
2023-05-22T11:24:20.357Z,100.00
2023-05-22T11:27:07.340Z,99.53
2023-05-22T11:29:34.393Z,94.52
2023-05-22T11:32:01.939Z,100.00
2023-05-22T11:34:28.660Z,100.00
2023-05-22T11:36:59.709Z,98.78
2023-05-22T11:39:26.699Z,100.00
2023-05-22T11:41:53.264Z,98.84
2023-05-22T11:44:19.905Z,90.26
2023-05-22T11:46:46.454Z,91.19
2023-05-22T11:49:13.201Z,79.68
2023-05-22T11:51:40.517Z,87.51
2023-05-22T11:54:07.781Z,88.23
2023-05-22T11:56:34.298Z,94.05
2023-05-22T11:59:00.694Z,98.47
2023-05-22T12:01:27.070Z,100.00
2023-05-22T12:03:54.236Z,100.00
2023-05-22T12:06:21.010Z,91.49
2023-05-22T12:08:47.675Z,88.08
2023-05-22T12:11:14.405Z,96.84
2023-05-22T12:13:41.290Z,94.90
2023-05-22T12:16:22.008Z,93.34
2023-05-22T12:18:52.448Z,100.00
2023-05-22T12:21:22.396Z,100.00
2023-05-22T12:23:52.110Z,91.71
2023-05-22T12:26:19.749Z,100.00
2023-05-22T12:28:46.344Z,100.00
2023-05-22T12:31:21.690Z,99.42
2023-05-22T12:33:48.298Z,97.21
2023-05-22T12:36:14.983Z,93.67
2023-05-22T12:38:41.373Z,95.66
2023-05-22T12:41:07.816Z,100.00
2023-05-22T12:43:34.331Z,97.61
2023-05-22T12:46:02.494Z,97.52
2023-05-22T12:48:29.330Z,88.21
2023-05-22T12:50:55.819Z,88.74
2023-05-22T12:53:22.227Z,92.81
2023-05-22T12:55:48.644Z,91.47
2023-05-22T12:58:15.284Z,92.31
2023-05-22T13:00:41.899Z,80.57
2023-05-22T13:03:08.964Z,76.51
2023-05-22T13:05:35.817Z,80.56
2023-05-22T13:08:02.217Z,78.69
2023-05-22T13:10:29.171Z,81.65
2023-05-22T13:12:55.928Z,76.97
2023-05-22T13:15:22.513Z,77.03
2023-05-22T13:17:48.988Z,60.56
2023-05-22T13:20:15.463Z,64.96
2023-05-22T13:22:42.020Z,72.92
2023-05-22T13:25:08.829Z,72.84
2023-05-22T13:27:35.300Z,70.27
2023-05-22T13:30:01.837Z,69.12
2023-05-22T13:32:28.343Z,80.67
2023-05-22T13:34:54.734Z,81.49
2023-05-22T13:37:21.272Z,74.24
2023-05-22T13:39:47.782Z,76.50
2023-05-22T13:42:14.548Z,77.79
2023-05-22T13:44:41.147Z,79.06
2023-05-22T13:47:07.649Z,87.87
2023-05-22T13:49:34.311Z,84.87
2023-05-22T13:52:00.822Z,81.88
2023-05-22T13:54:27.749Z,75.63
2023-05-22T13:56:54.266Z,82.30
2023-05-22T13:59:20.997Z,82.90
2023-05-22T14:01:47.410Z,66.57
2023-05-22T14:04:13.815Z,68.30
2023-05-22T14:06:40.210Z,69.34
2023-05-22T14:09:08.776Z,67.55
2023-05-22T14:11:35.656Z,71.90
2023-05-22T14:14:02.086Z,71.70
2023-05-22T14:16:28.566Z,67.54
2023-05-22T14:18:55.077Z,66.67
2023-05-22T14:21:21.619Z,64.23
2023-05-22T14:23:48.094Z,58.44
2023-05-22T14:26:14.885Z,62.86
2023-05-22T14:28:41.974Z,60.25
2023-05-22T14:31:08.411Z,61.95
2023-05-22T14:33:35.819Z,70.51
2023-05-22T14:36:02.444Z,66.73
2023-05-22T14:38:33.607Z,66.92
2023-05-22T14:41:01.158Z,71.77
2023-05-22T14:43:27.622Z,67.35
2023-05-22T14:45:56.474Z,66.75
2023-05-22T14:48:26.449Z,65.97
2023-05-22T14:50:56.085Z,72.28
2023-05-22T14:53:23.193Z,65.77
2023-05-22T14:55:49.639Z,68.74
2023-05-22T14:58:16.053Z,71.46
2023-05-22T15:00:47.173Z,69.02
2023-05-22T15:03:13.657Z,69.59
2023-05-22T15:05:40.410Z,70.50
2023-05-22T15:08:07.057Z,67.87
2023-05-22T15:10:33.493Z,67.92
2023-05-22T15:12:59.991Z,73.06
2023-05-22T15:15:26.593Z,77.16
2023-05-22T15:17:53.204Z,86.04
2023-05-22T15:20:19.793Z,97.13
2023-05-22T15:22:46.212Z,98.13
2023-05-22T15:25:14.850Z,90.41
2023-05-22T15:27:42.163Z,88.33
2023-05-22T15:30:12.184Z,80.46
2023-05-22T15:32:39.236Z,77.74
2023-05-22T15:35:06.848Z,76.84
2023-05-22T15:37:36.668Z,72.49
2023-05-22T15:40:04.574Z,78.23
2023-05-22T15:42:31.084Z,80.36
2023-05-22T15:44:59.086Z,76.31
2023-05-22T15:47:25.675Z,73.38
2023-05-22T15:49:52.187Z,76.04
2023-05-22T15:52:19.186Z,77.42
2023-05-22T15:54:45.591Z,72.84
2023-05-22T15:57:11.971Z,73.32
2023-05-22T15:59:38.364Z,74.68
2023-05-22T16:02:04.920Z,72.42
2023-05-22T16:04:31.410Z,67.64
2023-05-22T16:06:58.344Z,62.29
2023-05-22T16:09:24.815Z,62.39
2023-05-22T16:11:51.252Z,65.53
2023-05-22T16:14:17.706Z,70.78
2023-05-22T16:16:44.148Z,74.86
2023-05-22T16:19:11.425Z,77.40
2023-05-22T16:21:38.321Z,78.92
2023-05-22T16:24:06.425Z,74.88
2023-05-22T16:26:32.884Z,77.96
2023-05-22T16:28:59.268Z,78.58
2023-05-22T16:31:25.850Z,78.61
2023-05-22T16:33:53.149Z,74.93
2023-05-22T16:36:19.579Z,74.29
2023-05-22T16:38:45.969Z,76.92
2023-05-22T16:41:12.383Z,78.66
2023-05-22T16:43:38.854Z,78.51
2023-05-22T16:46:05.288Z,85.53
2023-05-22T16:48:31.776Z,79.09
2023-05-22T16:50:58.182Z,76.85
2023-05-22T16:53:24.631Z,76.40
2023-05-22T16:55:51.202Z,85.05
2023-05-22T16:58:17.747Z,84.53
2023-05-22T17:00:44.449Z,93.66
2023-05-22T17:03:11.936Z,91.79
2023-05-22T17:05:38.836Z,92.67
2023-05-22T17:08:06.537Z,92.88
2023-05-22T17:10:32.978Z,88.76
2023-05-22T17:12:59.344Z,94.54
2023-05-22T17:15:25.738Z,91.89
2023-05-22T17:17:52.216Z,89.85
2023-05-22T17:20:23.091Z,92.67
2023-05-22T17:22:49.969Z,93.89
2023-05-22T17:25:16.863Z,94.59
2023-05-22T17:27:43.425Z,100.00
2023-05-22T17:30:10.177Z,99.03
2023-05-22T17:32:37.743Z,93.91
2023-05-22T17:35:06.339Z,100.00
2023-05-22T17:37:33.370Z,100.00
2023-05-22T17:39:59.769Z,100.00
2023-05-22T17:42:26.210Z,100.00
2023-05-22T17:44:52.647Z,100.00
2023-05-22T17:47:19.064Z,100.00
2023-05-22T17:49:45.486Z,100.00
2023-05-22T17:52:13.146Z,100.00
2023-05-22T17:54:39.619Z,100.00
2023-05-22T17:57:06.367Z,100.00
2023-05-22T17:59:33.145Z,100.00
2023-05-22T18:01:59.824Z,100.00
2023-05-22T18:04:26.322Z,100.00
2023-05-22T18:06:52.802Z,100.00
2023-05-22T18:09:19.327Z,99.76
2023-05-22T18:11:45.859Z,100.00
2023-05-22T18:14:12.566Z,100.00
2023-05-22T18:16:39.017Z,100.00
2023-05-22T18:19:05.526Z,100.00
2023-05-22T18:21:32.287Z,100.00
2023-05-22T18:23:58.829Z,100.00
2023-05-22T18:26:26.652Z,100.00
2023-05-22T18:28:53.320Z,100.00
2023-05-22T18:31:20.159Z,100.00
2023-05-22T18:33:46.722Z,100.00
2023-05-22T18:36:13.267Z,100.00
2023-05-22T18:38:39.792Z,100.00
2023-05-22T18:41:06.693Z,100.00
2023-05-22T18:43:33.210Z,100.00
2023-05-22T18:45:59.702Z,100.00
2023-05-22T18:48:27.155Z,100.00
2023-05-22T18:50:54.177Z,100.00
2023-05-22T18:53:22.163Z,100.00
2023-05-22T18:55:48.885Z,100.00
2023-05-22T18:58:15.463Z,100.00
2023-05-22T19:00:42.341Z,100.00
2023-05-22T19:03:11.208Z,100.00
2023-05-22T19:05:37.989Z,100.00
2023-05-22T19:08:05.042Z,100.00
2023-05-22T19:10:31.618Z,100.00
2023-05-22T19:12:58.000Z,100.00
2023-05-22T19:15:25.586Z,100.00
2023-05-22T19:17:52.272Z,100.00
2023-05-22T19:20:18.791Z,100.00
2023-05-22T19:22:45.188Z,100.00
2023-05-22T19:25:11.569Z,100.00
2023-05-22T19:27:39.322Z,100.00
2023-05-22T19:30:07.196Z,100.00
2023-05-22T19:32:33.936Z,100.00
2023-05-22T19:35:00.497Z,100.00
2023-05-22T19:37:26.956Z,100.00
2023-05-22T19:39:54.222Z,100.00
2023-05-22T19:42:20.638Z,100.00
2023-05-22T19:44:47.373Z,100.00
2023-05-22T19:47:14.163Z,100.00
2023-05-22T19:49:40.754Z,100.00
2023-05-22T19:52:07.255Z,100.00
2023-05-22T19:54:35.152Z,100.00
2023-05-22T19:57:03.092Z,100.00
2023-05-22T19:59:29.601Z,100.00
2023-05-22T20:01:56.115Z,100.00
2023-05-22T20:04:23.067Z,100.00
2023-05-22T20:06:49.772Z,100.00
2023-05-22T20:09:16.747Z,100.00
2023-05-22T20:11:43.138Z,100.00
2023-05-22T20:14:11.808Z,100.00
2023-05-22T20:16:38.301Z,100.00
2023-05-22T20:19:04.839Z,100.00
2023-05-22T20:21:32.216Z,100.00
2023-05-22T20:23:59.281Z,100.00
2023-05-22T20:26:26.092Z,100.00
2023-05-22T20:28:52.637Z,100.00
2023-05-22T20:31:19.196Z,100.00
2023-05-22T20:33:45.635Z,100.00
2023-05-22T20:36:14.911Z,100.00
2023-05-22T20:38:42.545Z,100.00
2023-05-22T20:41:09.899Z,100.00
2023-05-22T20:43:36.536Z,100.00
2023-05-22T20:46:03.072Z,100.00
2023-05-22T20:48:29.961Z,100.00
2023-05-22T20:50:56.427Z,100.00
2023-05-22T20:53:24.487Z,100.00
2023-05-22T20:55:53.213Z,100.00
2023-05-22T20:58:20.036Z,100.00
2023-05-22T21:00:49.413Z,100.00
2023-05-22T21:03:17.627Z,100.00
2023-05-22T21:05:44.148Z,100.00
2023-05-22T21:08:10.547Z,100.00
2023-05-22T21:10:37.025Z,100.00
2023-05-22T21:13:03.452Z,100.00
2023-05-22T21:15:29.856Z,100.00
2023-05-22T21:17:56.524Z,100.00
2023-05-22T21:20:23.042Z,100.00
2023-05-22T21:22:49.493Z,100.00
2023-05-22T21:25:16.015Z,100.00
2023-05-22T21:27:42.407Z,100.00
2023-05-22T21:30:12.554Z,100.00
2023-05-22T21:32:39.135Z,100.00
2023-05-22T21:35:06.191Z,100.00
2023-05-22T21:37:32.620Z,100.00
2023-05-22T21:39:59.041Z,100.00
2023-05-22T21:42:26.223Z,100.00
2023-05-22T21:44:52.746Z,100.00
2023-05-22T21:47:19.202Z,100.00
2023-05-22T21:49:45.811Z,100.00
2023-05-22T21:52:12.703Z,100.00
2023-05-22T21:54:39.582Z,100.00
2023-05-22T21:57:06.564Z,100.00
2023-05-22T21:59:33.452Z,100.00
2023-05-22T22:01:59.973Z,100.00
2023-05-22T22:04:26.393Z,100.00
2023-05-22T22:06:52.869Z,100.00
2023-05-22T22:09:19.291Z,100.00
2023-05-22T22:11:45.821Z,100.00
2023-05-22T22:14:12.219Z,100.00
2023-05-22T22:16:40.621Z,100.00
2023-05-22T22:19:07.105Z,100.00
2023-05-22T22:21:34.101Z,100.00
2023-05-22T22:24:00.679Z,100.00
2023-05-22T22:26:30.688Z,100.00
2023-05-22T22:28:57.541Z,100.00
2023-05-22T22:31:24.504Z,100.00
2023-05-22T22:33:50.997Z,100.00
2023-05-22T22:36:17.498Z,100.00
2023-05-22T22:38:43.926Z,100.00
2023-05-22T22:41:11.021Z,100.00
2023-05-22T22:43:37.675Z,100.00
2023-05-22T22:46:04.166Z,100.00
2023-05-22T22:48:30.581Z,100.00
2023-05-22T22:50:57.836Z,100.00
2023-05-22T22:53:24.257Z,100.00
2023-05-22T22:55:56.117Z,100.00
2023-05-22T22:58:23.057Z,100.00
2023-05-22T23:00:49.496Z,100.00
2023-05-22T23:03:16.083Z,100.00
2023-05-22T23:05:42.726Z,100.00
2023-05-22T23:08:09.337Z,100.00
2023-05-22T23:10:35.877Z,100.00
2023-05-22T23:13:02.268Z,100.00
2023-05-22T23:15:28.748Z,100.00
2023-05-22T23:17:55.229Z,100.00
2023-05-22T23:20:21.731Z,100.00
2023-05-22T23:22:48.126Z,100.00
2023-05-22T23:25:14.595Z,100.00
2023-05-22T23:27:41.885Z,100.00
2023-05-22T23:30:09.183Z,100.00
2023-05-22T23:32:35.786Z,100.00
2023-05-22T23:35:02.263Z,100.00
2023-05-22T23:37:28.699Z,100.00
2023-05-22T23:39:55.195Z,100.00
2023-05-22T23:42:21.645Z,100.00
2023-05-22T23:44:48.054Z,100.00
2023-05-22T23:47:14.512Z,100.00
2023-05-22T23:49:40.905Z,100.00
2023-05-22T23:52:08.013Z,100.00
2023-05-22T23:54:34.453Z,100.00
2023-05-22T23:57:01.146Z,100.00
2023-05-22T23:59:27.511Z,100.00
